sensor_id;sensor_type;location;lat;lon;timestamp;P1;durP1;ratioP1;P2;durP2;ratioP2
12838;SDS011;6486;51.034;5.262;2024-03-22T00:01:49;2.60;;;1.40;;
12838;SDS011;6486;51.034;5.262;2024-03-22T00:04:15;3.07;;;1.97;;
12838;SDS011;6486;51.034;5.262;2024-03-22T00:06:42;2.70;;;1.73;;
12838;SDS011;6486;51.034;5.262;2024-03-22T00:09:08;3.43;;;1.60;;
12838;SDS011;6486;51.034;5.262;2024-03-22T00:11:34;3.03;;;2.00;;
12838;SDS011;6486;51.034;5.262;2024-03-22T00:14:01;3.27;;;2.13;;
12838;SDS011;6486;51.034;5.262;2024-03-22T00:16:27;2.23;;;2.03;;
12838;SDS011;6486;51.034;5.262;2024-03-22T00:18:53;2.10;;;1.37;;
12838;SDS011;6486;51.034;5.262;2024-03-22T00:21:18;2.40;;;2.00;;
12838;SDS011;6486;51.034;5.262;2024-03-22T00:23:45;1.13;;;1.00;;
12838;SDS011;6486;51.034;5.262;2024-03-22T00:26:10;3.10;;;2.23;;
12838;SDS011;6486;51.034;5.262;2024-03-22T00:28:36;2.57;;;1.47;;
12838;SDS011;6486;51.034;5.262;2024-03-22T00:31:02;1.80;;;1.53;;
12838;SDS011;6486;51.034;5.262;2024-03-22T00:33:28;2.30;;;1.50;;
12838;SDS011;6486;51.034;5.262;2024-03-22T00:35:53;1.90;;;1.63;;
12838;SDS011;6486;51.034;5.262;2024-03-22T00:38:19;2.77;;;1.83;;
12838;SDS011;6486;51.034;5.262;2024-03-22T00:40:44;2.70;;;1.40;;
12838;SDS011;6486;51.034;5.262;2024-03-22T00:43:10;4.30;;;2.33;;
12838;SDS011;6486;51.034;5.262;2024-03-22T00:45:36;1.80;;;1.30;;
12838;SDS011;6486;51.034;5.262;2024-03-22T00:48:01;2.03;;;1.57;;
12838;SDS011;6486;51.034;5.262;2024-03-22T00:50:27;2.27;;;1.87;;
12838;SDS011;6486;51.034;5.262;2024-03-22T00:52:54;2.90;;;1.50;;
12838;SDS011;6486;51.034;5.262;2024-03-22T00:55:23;3.13;;;1.73;;
12838;SDS011;6486;51.034;5.262;2024-03-22T00:57:49;1.50;;;1.40;;
12838;SDS011;6486;51.034;5.262;2024-03-22T01:00:15;2.57;;;1.77;;
12838;SDS011;6486;51.034;5.262;2024-03-22T01:02:41;2.40;;;1.70;;
12838;SDS011;6486;51.034;5.262;2024-03-22T01:05:09;1.23;;;1.13;;
12838;SDS011;6486;51.034;5.262;2024-03-22T01:07:35;1.50;;;1.33;;
12838;SDS011;6486;51.034;5.262;2024-03-22T01:10:01;3.80;;;2.17;;
12838;SDS011;6486;51.034;5.262;2024-03-22T01:12:28;1.57;;;1.43;;
12838;SDS011;6486;51.034;5.262;2024-03-22T01:14:53;1.77;;;1.33;;
12838;SDS011;6486;51.034;5.262;2024-03-22T01:17:19;3.07;;;1.30;;
12838;SDS011;6486;51.034;5.262;2024-03-22T01:19:45;2.93;;;1.20;;
12838;SDS011;6486;51.034;5.262;2024-03-22T01:22:11;2.07;;;1.63;;
12838;SDS011;6486;51.034;5.262;2024-03-22T01:24:36;2.50;;;1.87;;
12838;SDS011;6486;51.034;5.262;2024-03-22T01:27:02;2.00;;;1.40;;
12838;SDS011;6486;51.034;5.262;2024-03-22T01:29:28;3.37;;;1.97;;
12838;SDS011;6486;51.034;5.262;2024-03-22T01:31:56;1.43;;;1.13;;
12838;SDS011;6486;51.034;5.262;2024-03-22T01:34:25;2.93;;;1.63;;
12838;SDS011;6486;51.034;5.262;2024-03-22T01:36:51;1.67;;;1.57;;
12838;SDS011;6486;51.034;5.262;2024-03-22T01:39:18;1.60;;;1.03;;
12838;SDS011;6486;51.034;5.262;2024-03-22T01:41:46;3.17;;;2.13;;
12838;SDS011;6486;51.034;5.262;2024-03-22T01:44:26;4.97;;;1.70;;
12838;SDS011;6486;51.034;5.262;2024-03-22T01:46:53;2.40;;;1.20;;
12838;SDS011;6486;51.034;5.262;2024-03-22T01:49:18;2.47;;;1.47;;
12838;SDS011;6486;51.034;5.262;2024-03-22T01:51:44;1.90;;;1.53;;
12838;SDS011;6486;51.034;5.262;2024-03-22T01:54:10;2.27;;;1.43;;
12838;SDS011;6486;51.034;5.262;2024-03-22T01:56:38;1.57;;;1.47;;
12838;SDS011;6486;51.034;5.262;2024-03-22T01:59:05;2.10;;;1.93;;
12838;SDS011;6486;51.034;5.262;2024-03-22T02:01:31;3.97;;;1.63;;
12838;SDS011;6486;51.034;5.262;2024-03-22T02:03:57;2.10;;;1.50;;
12838;SDS011;6486;51.034;5.262;2024-03-22T02:06:23;2.30;;;1.53;;
12838;SDS011;6486;51.034;5.262;2024-03-22T02:08:49;1.50;;;1.00;;
12838;SDS011;6486;51.034;5.262;2024-03-22T02:11:15;2.00;;;1.40;;
12838;SDS011;6486;51.034;5.262;2024-03-22T02:13:40;2.27;;;1.40;;
12838;SDS011;6486;51.034;5.262;2024-03-22T02:16:08;2.07;;;1.87;;
12838;SDS011;6486;51.034;5.262;2024-03-22T02:18:34;2.00;;;1.40;;
12838;SDS011;6486;51.034;5.262;2024-03-22T02:21:00;1.23;;;1.13;;
12838;SDS011;6486;51.034;5.262;2024-03-22T02:23:34;3.03;;;1.50;;
12838;SDS011;6486;51.034;5.262;2024-03-22T02:26:00;2.00;;;1.10;;
12838;SDS011;6486;51.034;5.262;2024-03-22T02:28:27;2.13;;;1.40;;
12838;SDS011;6486;51.034;5.262;2024-03-22T02:30:52;2.47;;;1.30;;
12838;SDS011;6486;51.034;5.262;2024-03-22T02:33:18;1.77;;;1.27;;
12838;SDS011;6486;51.034;5.262;2024-03-22T02:35:45;1.93;;;1.50;;
12838;SDS011;6486;51.034;5.262;2024-03-22T02:38:12;2.67;;;2.13;;
12838;SDS011;6486;51.034;5.262;2024-03-22T02:40:37;2.03;;;1.53;;
12838;SDS011;6486;51.034;5.262;2024-03-22T02:43:03;1.90;;;1.23;;
12838;SDS011;6486;51.034;5.262;2024-03-22T02:45:29;1.60;;;1.40;;
12838;SDS011;6486;51.034;5.262;2024-03-22T02:47:56;2.30;;;1.20;;
12838;SDS011;6486;51.034;5.262;2024-03-22T02:50:21;2.93;;;1.90;;
12838;SDS011;6486;51.034;5.262;2024-03-22T02:52:50;1.30;;;1.20;;
12838;SDS011;6486;51.034;5.262;2024-03-22T02:55:16;1.50;;;1.40;;
12838;SDS011;6486;51.034;5.262;2024-03-22T02:57:41;2.70;;;1.57;;
12838;SDS011;6486;51.034;5.262;2024-03-22T03:00:07;2.03;;;1.20;;
12838;SDS011;6486;51.034;5.262;2024-03-22T03:02:33;1.73;;;1.50;;
12838;SDS011;6486;51.034;5.262;2024-03-22T03:04:59;2.90;;;1.80;;
12838;SDS011;6486;51.034;5.262;2024-03-22T03:07:25;1.30;;;1.20;;
12838;SDS011;6486;51.034;5.262;2024-03-22T03:09:52;2.27;;;1.33;;
12838;SDS011;6486;51.034;5.262;2024-03-22T03:12:18;1.57;;;1.37;;
12838;SDS011;6486;51.034;5.262;2024-03-22T03:14:44;4.17;;;1.63;;
12838;SDS011;6486;51.034;5.262;2024-03-22T03:17:09;3.57;;;2.00;;
12838;SDS011;6486;51.034;5.262;2024-03-22T03:19:35;1.33;;;1.07;;
12838;SDS011;6486;51.034;5.262;2024-03-22T03:22:01;2.93;;;1.43;;
12838;SDS011;6486;51.034;5.262;2024-03-22T03:24:27;2.10;;;1.10;;
12838;SDS011;6486;51.034;5.262;2024-03-22T03:26:53;2.40;;;1.40;;
12838;SDS011;6486;51.034;5.262;2024-03-22T03:29:19;1.77;;;1.33;;
12838;SDS011;6486;51.034;5.262;2024-03-22T03:31:44;1.30;;;1.20;;
12838;SDS011;6486;51.034;5.262;2024-03-22T03:34:10;1.50;;;1.13;;
12838;SDS011;6486;51.034;5.262;2024-03-22T03:36:36;1.43;;;1.00;;
12838;SDS011;6486;51.034;5.262;2024-03-22T03:39:02;2.03;;;1.80;;
12838;SDS011;6486;51.034;5.262;2024-03-22T03:41:29;1.53;;;1.17;;
12838;SDS011;6486;51.034;5.262;2024-03-22T03:43:54;1.97;;;1.67;;
12838;SDS011;6486;51.034;5.262;2024-03-22T03:46:20;1.07;;;1.00;;
12838;SDS011;6486;51.034;5.262;2024-03-22T03:48:46;1.33;;;1.23;;
12838;SDS011;6486;51.034;5.262;2024-03-22T03:51:11;1.10;;;0.83;;
12838;SDS011;6486;51.034;5.262;2024-03-22T03:53:37;4.77;;;1.80;;
12838;SDS011;6486;51.034;5.262;2024-03-22T03:56:03;2.43;;;1.77;;
12838;SDS011;6486;51.034;5.262;2024-03-22T03:58:28;1.30;;;1.07;;
12838;SDS011;6486;51.034;5.262;2024-03-22T04:00:54;2.07;;;1.30;;
12838;SDS011;6486;51.034;5.262;2024-03-22T04:03:20;1.93;;;0.80;;
12838;SDS011;6486;51.034;5.262;2024-03-22T04:05:45;1.73;;;1.20;;
12838;SDS011;6486;51.034;5.262;2024-03-22T04:08:11;2.67;;;0.97;;
12838;SDS011;6486;51.034;5.262;2024-03-22T04:10:37;1.20;;;1.10;;
12838;SDS011;6486;51.034;5.262;2024-03-22T04:13:02;13.77;;;1.30;;
12838;SDS011;6486;51.034;5.262;2024-03-22T04:15:28;1.60;;;1.10;;
12838;SDS011;6486;51.034;5.262;2024-03-22T04:17:56;3.33;;;1.47;;
12838;SDS011;6486;51.034;5.262;2024-03-22T04:20:22;1.73;;;1.20;;
12838;SDS011;6486;51.034;5.262;2024-03-22T04:22:47;1.20;;;1.10;;
12838;SDS011;6486;51.034;5.262;2024-03-22T04:25:14;1.00;;;1.00;;
12838;SDS011;6486;51.034;5.262;2024-03-22T04:27:40;1.33;;;1.23;;
12838;SDS011;6486;51.034;5.262;2024-03-22T04:30:06;1.23;;;1.00;;
12838;SDS011;6486;51.034;5.262;2024-03-22T04:32:32;1.27;;;1.00;;
12838;SDS011;6486;51.034;5.262;2024-03-22T04:34:58;1.70;;;1.33;;
12838;SDS011;6486;51.034;5.262;2024-03-22T04:37:24;1.60;;;1.03;;
12838;SDS011;6486;51.034;5.262;2024-03-22T04:39:49;3.60;;;1.33;;
12838;SDS011;6486;51.034;5.262;2024-03-22T04:42:15;1.43;;;1.07;;
12838;SDS011;6486;51.034;5.262;2024-03-22T04:44:41;2.13;;;1.23;;
12838;SDS011;6486;51.034;5.262;2024-03-22T04:47:07;2.30;;;1.53;;
12838;SDS011;6486;51.034;5.262;2024-03-22T04:49:32;1.33;;;1.23;;
12838;SDS011;6486;51.034;5.262;2024-03-22T04:51:58;1.77;;;1.20;;
12838;SDS011;6486;51.034;5.262;2024-03-22T04:54:24;2.13;;;1.23;;
12838;SDS011;6486;51.034;5.262;2024-03-22T04:56:49;2.23;;;1.50;;
12838;SDS011;6486;51.034;5.262;2024-03-22T04:59:15;1.47;;;1.10;;
12838;SDS011;6486;51.034;5.262;2024-03-22T05:01:42;1.50;;;0.97;;
12838;SDS011;6486;51.034;5.262;2024-03-22T05:04:09;2.00;;;1.77;;
12838;SDS011;6486;51.034;5.262;2024-03-22T05:06:35;1.57;;;0.93;;
12838;SDS011;6486;51.034;5.262;2024-03-22T05:09:00;2.30;;;1.63;;
12838;SDS011;6486;51.034;5.262;2024-03-22T05:11:26;2.53;;;1.80;;
12838;SDS011;6486;51.034;5.262;2024-03-22T05:13:52;1.57;;;1.40;;
12838;SDS011;6486;51.034;5.262;2024-03-22T05:16:17;1.27;;;0.83;;
12838;SDS011;6486;51.034;5.262;2024-03-22T05:18:43;1.30;;;1.00;;
12838;SDS011;6486;51.034;5.262;2024-03-22T05:21:09;1.00;;;0.93;;
12838;SDS011;6486;51.034;5.262;2024-03-22T05:23:34;1.60;;;1.20;;
12838;SDS011;6486;51.034;5.262;2024-03-22T05:26:00;1.70;;;1.13;;
12838;SDS011;6486;51.034;5.262;2024-03-22T05:28:26;2.73;;;1.10;;
12838;SDS011;6486;51.034;5.262;2024-03-22T05:30:51;1.93;;;1.30;;
12838;SDS011;6486;51.034;5.262;2024-03-22T05:33:17;1.13;;;0.97;;
12838;SDS011;6486;51.034;5.262;2024-03-22T05:35:43;1.53;;;1.23;;
12838;SDS011;6486;51.034;5.262;2024-03-22T05:38:08;1.33;;;1.23;;
12838;SDS011;6486;51.034;5.262;2024-03-22T05:40:36;0.70;;;0.70;;
12838;SDS011;6486;51.034;5.262;2024-03-22T05:43:03;1.33;;;0.90;;
12838;SDS011;6486;51.034;5.262;2024-03-22T05:45:29;1.53;;;1.20;;
12838;SDS011;6486;51.034;5.262;2024-03-22T05:47:55;1.03;;;0.93;;
12838;SDS011;6486;51.034;5.262;2024-03-22T05:50:21;2.53;;;1.10;;
12838;SDS011;6486;51.034;5.262;2024-03-22T05:52:47;1.43;;;1.03;;
12838;SDS011;6486;51.034;5.262;2024-03-22T05:55:12;2.53;;;1.73;;
12838;SDS011;6486;51.034;5.262;2024-03-22T05:57:38;1.70;;;1.07;;
12838;SDS011;6486;51.034;5.262;2024-03-22T06:00:04;1.00;;;0.90;;
12838;SDS011;6486;51.034;5.262;2024-03-22T06:02:34;0.97;;;0.97;;
12838;SDS011;6486;51.034;5.262;2024-03-22T06:05:00;2.23;;;1.00;;
12838;SDS011;6486;51.034;5.262;2024-03-22T06:07:26;1.80;;;0.97;;
12838;SDS011;6486;51.034;5.262;2024-03-22T06:09:52;1.47;;;0.90;;
12838;SDS011;6486;51.034;5.262;2024-03-22T06:12:17;0.83;;;0.80;;
12838;SDS011;6486;51.034;5.262;2024-03-22T06:14:43;1.77;;;1.10;;
12838;SDS011;6486;51.034;5.262;2024-03-22T06:17:10;1.20;;;1.10;;
12838;SDS011;6486;51.034;5.262;2024-03-22T06:19:36;0.70;;;0.60;;
12838;SDS011;6486;51.034;5.262;2024-03-22T06:22:02;1.67;;;1.00;;
12838;SDS011;6486;51.034;5.262;2024-03-22T06:24:28;0.60;;;0.60;;
12838;SDS011;6486;51.034;5.262;2024-03-22T06:26:54;1.37;;;1.07;;
12838;SDS011;6486;51.034;5.262;2024-03-22T06:29:20;1.23;;;1.13;;
12838;SDS011;6486;51.034;5.262;2024-03-22T06:31:46;1.33;;;0.83;;
12838;SDS011;6486;51.034;5.262;2024-03-22T06:34:12;1.47;;;1.07;;
12838;SDS011;6486;51.034;5.262;2024-03-22T06:36:37;1.53;;;1.43;;
12838;SDS011;6486;51.034;5.262;2024-03-22T06:39:03;1.00;;;0.70;;
12838;SDS011;6486;51.034;5.262;2024-03-22T06:41:32;1.67;;;0.93;;
12838;SDS011;6486;51.034;5.262;2024-03-22T06:43:58;1.40;;;1.30;;
12838;SDS011;6486;51.034;5.262;2024-03-22T06:46:23;0.80;;;0.67;;
12838;SDS011;6486;51.034;5.262;2024-03-22T06:48:49;0.77;;;0.67;;
12838;SDS011;6486;51.034;5.262;2024-03-22T06:51:15;0.70;;;0.70;;
12838;SDS011;6486;51.034;5.262;2024-03-22T06:53:41;1.10;;;1.00;;
12838;SDS011;6486;51.034;5.262;2024-03-22T06:56:07;2.27;;;1.03;;
12838;SDS011;6486;51.034;5.262;2024-03-22T06:58:36;0.67;;;0.57;;
12838;SDS011;6486;51.034;5.262;2024-03-22T07:01:03;2.77;;;1.37;;
12838;SDS011;6486;51.034;5.262;2024-03-22T07:03:29;0.80;;;0.80;;
12838;SDS011;6486;51.034;5.262;2024-03-22T07:05:55;1.77;;;0.90;;
12838;SDS011;6486;51.034;5.262;2024-03-22T07:08:22;0.60;;;0.60;;
12838;SDS011;6486;51.034;5.262;2024-03-22T07:10:48;1.07;;;0.97;;
12838;SDS011;6486;51.034;5.262;2024-03-22T07:13:14;0.90;;;0.67;;
12838;SDS011;6486;51.034;5.262;2024-03-22T07:15:40;1.50;;;0.87;;
12838;SDS011;6486;51.034;5.262;2024-03-22T07:18:05;1.13;;;1.03;;
12838;SDS011;6486;51.034;5.262;2024-03-22T07:20:31;0.73;;;0.73;;
12838;SDS011;6486;51.034;5.262;2024-03-22T07:22:57;1.73;;;1.10;;
12838;SDS011;6486;51.034;5.262;2024-03-22T07:25:22;0.60;;;0.60;;
12838;SDS011;6486;51.034;5.262;2024-03-22T07:27:48;3.23;;;1.07;;
12838;SDS011;6486;51.034;5.262;2024-03-22T07:30:14;1.20;;;0.77;;
12838;SDS011;6486;51.034;5.262;2024-03-22T07:32:40;2.33;;;1.10;;
12838;SDS011;6486;51.034;5.262;2024-03-22T07:35:05;1.67;;;1.00;;
12838;SDS011;6486;51.034;5.262;2024-03-22T07:37:34;0.97;;;0.70;;
12838;SDS011;6486;51.034;5.262;2024-03-22T07:40:00;0.60;;;0.60;;
12838;SDS011;6486;51.034;5.262;2024-03-22T07:42:27;1.77;;;0.63;;
12838;SDS011;6486;51.034;5.262;2024-03-22T07:44:52;1.13;;;0.90;;
12838;SDS011;6486;51.034;5.262;2024-03-22T07:47:18;0.80;;;0.80;;
12838;SDS011;6486;51.034;5.262;2024-03-22T07:49:44;0.60;;;0.57;;
12838;SDS011;6486;51.034;5.262;2024-03-22T07:52:10;0.57;;;0.57;;
12838;SDS011;6486;51.034;5.262;2024-03-22T07:54:36;0.50;;;0.50;;
12838;SDS011;6486;51.034;5.262;2024-03-22T07:57:01;0.67;;;0.67;;
12838;SDS011;6486;51.034;5.262;2024-03-22T07:59:27;1.70;;;0.87;;
12838;SDS011;6486;51.034;5.262;2024-03-22T08:01:53;2.17;;;1.07;;
12838;SDS011;6486;51.034;5.262;2024-03-22T08:04:19;0.90;;;0.60;;
12838;SDS011;6486;51.034;5.262;2024-03-22T08:06:45;0.87;;;0.83;;
12838;SDS011;6486;51.034;5.262;2024-03-22T08:09:11;1.27;;;0.90;;
12838;SDS011;6486;51.034;5.262;2024-03-22T08:11:37;0.40;;;0.40;;
12838;SDS011;6486;51.034;5.262;2024-03-22T08:14:02;0.60;;;0.60;;
12838;SDS011;6486;51.034;5.262;2024-03-22T08:16:31;0.87;;;0.83;;
12838;SDS011;6486;51.034;5.262;2024-03-22T08:18:57;3.70;;;1.40;;
12838;SDS011;6486;51.034;5.262;2024-03-22T08:21:23;1.20;;;1.10;;
12838;SDS011;6486;51.034;5.262;2024-03-22T08:23:50;1.30;;;0.93;;
12838;SDS011;6486;51.034;5.262;2024-03-22T08:26:16;0.60;;;0.60;;
12838;SDS011;6486;51.034;5.262;2024-03-22T08:28:42;1.30;;;0.83;;
12838;SDS011;6486;51.034;5.262;2024-03-22T08:31:07;2.13;;;0.90;;
12838;SDS011;6486;51.034;5.262;2024-03-22T08:33:33;0.93;;;0.90;;
12838;SDS011;6486;51.034;5.262;2024-03-22T08:35:59;0.70;;;0.50;;
12838;SDS011;6486;51.034;5.262;2024-03-22T08:38:26;1.13;;;0.60;;
12838;SDS011;6486;51.034;5.262;2024-03-22T08:40:52;0.67;;;0.50;;
12838;SDS011;6486;51.034;5.262;2024-03-22T08:43:18;0.70;;;0.70;;
12838;SDS011;6486;51.034;5.262;2024-03-22T08:45:43;0.80;;;0.80;;
12838;SDS011;6486;51.034;5.262;2024-03-22T08:48:09;0.60;;;0.60;;
12838;SDS011;6486;51.034;5.262;2024-03-22T08:50:34;0.57;;;0.57;;
12838;SDS011;6486;51.034;5.262;2024-03-22T08:53:00;0.67;;;0.37;;
12838;SDS011;6486;51.034;5.262;2024-03-22T08:55:29;0.37;;;0.33;;
12838;SDS011;6486;51.034;5.262;2024-03-22T08:57:55;1.10;;;0.80;;
12838;SDS011;6486;51.034;5.262;2024-03-22T09:00:21;0.53;;;0.50;;
12838;SDS011;6486;51.034;5.262;2024-03-22T09:02:46;1.60;;;0.50;;
12838;SDS011;6486;51.034;5.262;2024-03-22T09:05:12;0.80;;;0.60;;
12838;SDS011;6486;51.034;5.262;2024-03-22T09:07:38;0.70;;;0.50;;
12838;SDS011;6486;51.034;5.262;2024-03-22T09:10:04;0.73;;;0.60;;
12838;SDS011;6486;51.034;5.262;2024-03-22T09:12:31;0.80;;;0.50;;
12838;SDS011;6486;51.034;5.262;2024-03-22T09:14:57;0.93;;;0.60;;
12838;SDS011;6486;51.034;5.262;2024-03-22T09:17:22;0.87;;;0.50;;
12838;SDS011;6486;51.034;5.262;2024-03-22T09:19:48;2.00;;;0.73;;
12838;SDS011;6486;51.034;5.262;2024-03-22T09:22:14;0.83;;;0.67;;
12838;SDS011;6486;51.034;5.262;2024-03-22T09:24:40;0.60;;;0.60;;
12838;SDS011;6486;51.034;5.262;2024-03-22T09:27:06;0.60;;;0.50;;
12838;SDS011;6486;51.034;5.262;2024-03-22T09:29:35;1.50;;;0.67;;
12838;SDS011;6486;51.034;5.262;2024-03-22T09:32:02;0.50;;;0.50;;
12838;SDS011;6486;51.034;5.262;2024-03-22T09:34:28;0.47;;;0.43;;
12838;SDS011;6486;51.034;5.262;2024-03-22T09:36:57;0.40;;;0.40;;
12838;SDS011;6486;51.034;5.262;2024-03-22T09:39:23;0.80;;;0.60;;
12838;SDS011;6486;51.034;5.262;2024-03-22T09:41:48;0.47;;;0.47;;
12838;SDS011;6486;51.034;5.262;2024-03-22T09:44:17;0.90;;;0.67;;
12838;SDS011;6486;51.034;5.262;2024-03-22T09:46:43;0.50;;;0.50;;
12838;SDS011;6486;51.034;5.262;2024-03-22T09:49:11;0.77;;;0.47;;
12838;SDS011;6486;51.034;5.262;2024-03-22T09:51:37;0.93;;;0.70;;
12838;SDS011;6486;51.034;5.262;2024-03-22T09:54:04;0.30;;;0.30;;
12838;SDS011;6486;51.034;5.262;2024-03-22T09:56:31;0.50;;;0.50;;
12838;SDS011;6486;51.034;5.262;2024-03-22T09:58:59;2.00;;;0.80;;
12838;SDS011;6486;51.034;5.262;2024-03-22T10:01:25;0.53;;;0.53;;
12838;SDS011;6486;51.034;5.262;2024-03-22T10:03:51;1.33;;;0.97;;
12838;SDS011;6486;51.034;5.262;2024-03-22T10:06:18;0.50;;;0.50;;
12838;SDS011;6486;51.034;5.262;2024-03-22T10:08:44;0.57;;;0.50;;
12838;SDS011;6486;51.034;5.262;2024-03-22T10:11:10;1.00;;;0.60;;
12838;SDS011;6486;51.034;5.262;2024-03-22T10:13:36;0.37;;;0.37;;
12838;SDS011;6486;51.034;5.262;2024-03-22T10:16:02;0.67;;;0.53;;
12838;SDS011;6486;51.034;5.262;2024-03-22T10:18:28;0.57;;;0.50;;
12838;SDS011;6486;51.034;5.262;2024-03-22T10:23:27;0.77;;;0.40;;
12838;SDS011;6486;51.034;5.262;2024-03-22T10:25:54;0.57;;;0.57;;
12838;SDS011;6486;51.034;5.262;2024-03-22T10:28:21;0.87;;;0.70;;
12838;SDS011;6486;51.034;5.262;2024-03-22T10:30:47;0.63;;;0.63;;
12838;SDS011;6486;51.034;5.262;2024-03-22T10:33:15;0.50;;;0.50;;
12838;SDS011;6486;51.034;5.262;2024-03-22T10:35:43;0.73;;;0.30;;
12838;SDS011;6486;51.034;5.262;2024-03-22T10:38:11;0.40;;;0.40;;
12838;SDS011;6486;51.034;5.262;2024-03-22T10:40:38;0.57;;;0.57;;
12838;SDS011;6486;51.034;5.262;2024-03-22T10:43:09;0.83;;;0.60;;
12838;SDS011;6486;51.034;5.262;2024-03-22T10:45:34;0.50;;;0.43;;
12838;SDS011;6486;51.034;5.262;2024-03-22T10:48:00;0.40;;;0.40;;
12838;SDS011;6486;51.034;5.262;2024-03-22T10:50:33;1.53;;;0.60;;
12838;SDS011;6486;51.034;5.262;2024-03-22T10:53:01;0.90;;;0.80;;
12838;SDS011;6486;51.034;5.262;2024-03-22T10:55:35;0.60;;;0.50;;
12838;SDS011;6486;51.034;5.262;2024-03-22T10:58:06;0.90;;;0.90;;
12838;SDS011;6486;51.034;5.262;2024-03-22T11:00:32;0.70;;;0.70;;
12838;SDS011;6486;51.034;5.262;2024-03-22T11:03:03;0.60;;;0.60;;
12838;SDS011;6486;51.034;5.262;2024-03-22T11:05:29;0.80;;;0.80;;
12838;SDS011;6486;51.034;5.262;2024-03-22T11:07:59;0.90;;;0.83;;
12838;SDS011;6486;51.034;5.262;2024-03-22T11:10:28;0.87;;;0.60;;
12838;SDS011;6486;51.034;5.262;2024-03-22T11:13:03;0.60;;;0.40;;
12838;SDS011;6486;51.034;5.262;2024-03-22T11:15:30;0.70;;;0.70;;
12838;SDS011;6486;51.034;5.262;2024-03-22T11:17:56;0.93;;;0.60;;
12838;SDS011;6486;51.034;5.262;2024-03-22T11:20:23;1.10;;;0.80;;
12838;SDS011;6486;51.034;5.262;2024-03-22T11:22:49;0.60;;;0.50;;
12838;SDS011;6486;51.034;5.262;2024-03-22T11:25:16;0.70;;;0.70;;
12838;SDS011;6486;51.034;5.262;2024-03-22T11:27:42;0.47;;;0.47;;
12838;SDS011;6486;51.034;5.262;2024-03-22T11:30:07;0.80;;;0.70;;
12838;SDS011;6486;51.034;5.262;2024-03-22T11:32:33;0.87;;;0.87;;
12838;SDS011;6486;51.034;5.262;2024-03-22T11:35:11;0.40;;;0.40;;
12838;SDS011;6486;51.034;5.262;2024-03-22T11:37:38;1.10;;;0.87;;
12838;SDS011;6486;51.034;5.262;2024-03-22T11:40:05;0.50;;;0.50;;
12838;SDS011;6486;51.034;5.262;2024-03-22T11:42:33;2.13;;;1.57;;
12838;SDS011;6486;51.034;5.262;2024-03-22T11:45:00;0.60;;;0.60;;
12838;SDS011;6486;51.034;5.262;2024-03-22T11:47:27;0.63;;;0.50;;
12838;SDS011;6486;51.034;5.262;2024-03-22T11:49:53;0.60;;;0.60;;
12838;SDS011;6486;51.034;5.262;2024-03-22T11:52:24;0.40;;;0.40;;
12838;SDS011;6486;51.034;5.262;2024-03-22T11:54:51;0.90;;;0.63;;
12838;SDS011;6486;51.034;5.262;2024-03-22T11:57:23;0.70;;;0.70;;
12838;SDS011;6486;51.034;5.262;2024-03-22T11:59:49;0.97;;;0.63;;
12838;SDS011;6486;51.034;5.262;2024-03-22T12:02:15;0.50;;;0.50;;
12838;SDS011;6486;51.034;5.262;2024-03-22T12:04:45;1.60;;;1.10;;
12838;SDS011;6486;51.034;5.262;2024-03-22T12:07:15;0.60;;;0.60;;
12838;SDS011;6486;51.034;5.262;2024-03-22T12:09:42;0.47;;;0.40;;
12838;SDS011;6486;51.034;5.262;2024-03-22T12:12:09;0.73;;;0.70;;
12838;SDS011;6486;51.034;5.262;2024-03-22T12:14:36;1.23;;;0.80;;
12838;SDS011;6486;51.034;5.262;2024-03-22T12:17:03;0.67;;;0.57;;
12838;SDS011;6486;51.034;5.262;2024-03-22T12:19:30;2.93;;;1.03;;
12838;SDS011;6486;51.034;5.262;2024-03-22T12:21:56;1.70;;;1.10;;
12838;SDS011;6486;51.034;5.262;2024-03-22T12:24:22;3.40;;;0.60;;
12838;SDS011;6486;51.034;5.262;2024-03-22T12:26:48;0.53;;;0.50;;
12838;SDS011;6486;51.034;5.262;2024-03-22T12:29:17;1.40;;;0.87;;
12838;SDS011;6486;51.034;5.262;2024-03-22T12:31:43;0.77;;;0.67;;
12838;SDS011;6486;51.034;5.262;2024-03-22T12:34:09;1.13;;;1.03;;
12838;SDS011;6486;51.034;5.262;2024-03-22T12:36:35;0.80;;;0.80;;
12838;SDS011;6486;51.034;5.262;2024-03-22T12:39:01;1.10;;;0.70;;
12838;SDS011;6486;51.034;5.262;2024-03-22T12:41:28;1.33;;;0.97;;
12838;SDS011;6486;51.034;5.262;2024-03-22T12:43:55;2.30;;;0.77;;
12838;SDS011;6486;51.034;5.262;2024-03-22T12:46:21;0.87;;;0.67;;
12838;SDS011;6486;51.034;5.262;2024-03-22T12:48:46;0.80;;;0.80;;
12838;SDS011;6486;51.034;5.262;2024-03-22T12:51:12;1.37;;;0.70;;
12838;SDS011;6486;51.034;5.262;2024-03-22T12:53:38;1.10;;;0.83;;
12838;SDS011;6486;51.034;5.262;2024-03-22T12:56:04;0.93;;;0.87;;
12838;SDS011;6486;51.034;5.262;2024-03-22T12:58:30;1.03;;;0.90;;
12838;SDS011;6486;51.034;5.262;2024-03-22T13:00:56;1.50;;;0.73;;
12838;SDS011;6486;51.034;5.262;2024-03-22T13:03:22;0.60;;;0.60;;
12838;SDS011;6486;51.034;5.262;2024-03-22T13:05:48;1.40;;;0.67;;
12838;SDS011;6486;51.034;5.262;2024-03-22T13:08:14;0.60;;;0.60;;
12838;SDS011;6486;51.034;5.262;2024-03-22T13:10:40;0.80;;;0.80;;
12838;SDS011;6486;51.034;5.262;2024-03-22T13:13:08;0.50;;;0.50;;
12838;SDS011;6486;51.034;5.262;2024-03-22T13:15:34;0.70;;;0.70;;
12838;SDS011;6486;51.034;5.262;2024-03-22T13:18:02;1.23;;;1.10;;
12838;SDS011;6486;51.034;5.262;2024-03-22T13:20:28;0.70;;;0.70;;
12838;SDS011;6486;51.034;5.262;2024-03-22T13:22:54;1.20;;;1.10;;
12838;SDS011;6486;51.034;5.262;2024-03-22T13:25:20;0.73;;;0.70;;
12838;SDS011;6486;51.034;5.262;2024-03-22T13:27:46;0.60;;;0.60;;
12838;SDS011;6486;51.034;5.262;2024-03-22T13:30:12;1.33;;;0.97;;
12838;SDS011;6486;51.034;5.262;2024-03-22T13:32:39;0.67;;;0.50;;
12838;SDS011;6486;51.034;5.262;2024-03-22T13:35:05;1.13;;;0.63;;
12838;SDS011;6486;51.034;5.262;2024-03-22T13:37:32;4.63;;;1.10;;
12838;SDS011;6486;51.034;5.262;2024-03-22T13:39:58;1.87;;;0.77;;
12838;SDS011;6486;51.034;5.262;2024-03-22T13:42:25;0.70;;;0.70;;
12838;SDS011;6486;51.034;5.262;2024-03-22T13:44:51;3.40;;;0.87;;
12838;SDS011;6486;51.034;5.262;2024-03-22T13:47:17;2.23;;;0.90;;
12838;SDS011;6486;51.034;5.262;2024-03-22T13:49:43;0.70;;;0.70;;
12838;SDS011;6486;51.034;5.262;2024-03-22T13:52:12;1.67;;;1.30;;
12838;SDS011;6486;51.034;5.262;2024-03-22T13:54:38;1.20;;;0.90;;
12838;SDS011;6486;51.034;5.262;2024-03-22T13:57:04;0.83;;;0.83;;
12838;SDS011;6486;51.034;5.262;2024-03-22T13:59:30;1.53;;;1.10;;
12838;SDS011;6486;51.034;5.262;2024-03-22T14:01:56;0.83;;;0.83;;
12838;SDS011;6486;51.034;5.262;2024-03-22T14:04:22;1.23;;;0.93;;
12838;SDS011;6486;51.034;5.262;2024-03-22T14:06:48;1.00;;;0.83;;
12838;SDS011;6486;51.034;5.262;2024-03-22T14:09:14;0.77;;;0.73;;
12838;SDS011;6486;51.034;5.262;2024-03-22T14:11:40;0.83;;;0.80;;
12838;SDS011;6486;51.034;5.262;2024-03-22T14:14:08;0.60;;;0.60;;
12838;SDS011;6486;51.034;5.262;2024-03-22T14:16:37;1.10;;;0.97;;
12838;SDS011;6486;51.034;5.262;2024-03-22T14:19:03;1.57;;;0.87;;
12838;SDS011;6486;51.034;5.262;2024-03-22T14:21:29;1.13;;;1.00;;
12838;SDS011;6486;51.034;5.262;2024-03-22T14:23:54;1.03;;;0.80;;
12838;SDS011;6486;51.034;5.262;2024-03-22T14:26:20;1.10;;;1.00;;
12838;SDS011;6486;51.034;5.262;2024-03-22T14:28:48;0.70;;;0.70;;
12838;SDS011;6486;51.034;5.262;2024-03-22T14:31:15;0.50;;;0.50;;
12838;SDS011;6486;51.034;5.262;2024-03-22T14:33:41;0.73;;;0.70;;
12838;SDS011;6486;51.034;5.262;2024-03-22T14:36:08;1.53;;;0.90;;
12838;SDS011;6486;51.034;5.262;2024-03-22T14:38:35;1.07;;;0.90;;
12838;SDS011;6486;51.034;5.262;2024-03-22T14:41:02;1.30;;;1.20;;
12838;SDS011;6486;51.034;5.262;2024-03-22T14:43:28;0.70;;;0.70;;
12838;SDS011;6486;51.034;5.262;2024-03-22T14:45:56;1.67;;;1.33;;
12838;SDS011;6486;51.034;5.262;2024-03-22T14:48:22;0.87;;;0.60;;
12838;SDS011;6486;51.034;5.262;2024-03-22T14:50:49;0.57;;;0.53;;
12838;SDS011;6486;51.034;5.262;2024-03-22T14:53:19;1.00;;;0.90;;
12838;SDS011;6486;51.034;5.262;2024-03-22T14:55:55;0.70;;;0.70;;
12838;SDS011;6486;51.034;5.262;2024-03-22T14:58:23;1.30;;;0.90;;